LDSB/BWK METAR and TAF weather

Enter ICAO airport designator
Station Type Date Time Source
LDSB METAR 2019/02/16 13:00 UTC NOAA

LDSB 161300Z 22005KT CAVOK 11/M06 Q1029


Station Type Date Time Source
LDSB Decoded METAR 2019/02/16 13:00 UTC NOAA

Brac, Croatia (LDSB) 43-17-09N 016-40-47E
Feb 16, 2019 - 08:00 AM EST / 2019.02.16 1300 UTC
Wind: from the SW (220 degrees) at 6 MPH (5 KT):0
Visibility: greater than 7 mile(s):0
Temperature: 51 F (11 C)
Dew Point: 21 F (-6 C)
Relative Humidity: 29%
Pressure (altimeter): 30.39 in. Hg (1029 hPa)
ob: LDSB 161300Z 22005KT CAVOK 11/M06 Q1029
cycle: 13

Station Type Date Time Source
LDSB TAF 2019/02/16 14:12 UTC NOAA

TAF
AMD LDSB 161410Z 1614/1712 CNL


Example: see airport list